Time;durP1;ratioP1;P1;durP2;ratioP2;P2;SDS_P1;SDS_P2;PMS_P1;PMS_P2;Temp;Humidity;BMP_temperature;BMP_pressure;BME280_temperature;BME280_humidity;BME280_pressure;Samples;Min_cycle;Max_cycle;Signal;HPM_P1;HPM_P2
2021/01/29 00:01:22;;;;;;;14.30;13.70;;;9.20;99.90;;;;;;5100632;28;20530;-76
2021/01/29 00:03:49;;;;;;;13.17;12.67;;;9.20;99.90;;;;;;5093477;28;20465;-76
2021/01/29 00:06:15;;;;;;;14.00;13.40;;;9.20;99.90;;;;;;5097906;28;20530;-76
2021/01/29 00:08:42;;;;;;;13.53;13.00;;;9.10;99.90;;;;;;5101967;28;20468;-76
2021/01/29 00:11:09;;;;;;;13.43;12.93;;;9.10;99.90;;;;;;5093496;28;20460;-76
2021/01/29 00:13:35;;;;;;;17.17;16.40;;;9.10;99.90;;;;;;5094038;28;20469;-76
2021/01/29 00:16:03;;;;;;;13.33;12.83;;;9.10;99.90;;;;;;5098898;28;20473;-76
2021/01/29 00:18:30;;;;;;;13.87;13.27;;;8.90;99.90;;;;;;5091601;28;20523;-77
2021/01/29 00:20:58;;;;;;;14.00;13.40;;;8.90;99.90;;;;;;5099524;28;20488;-76
2021/01/29 00:23:24;;;;;;;14.37;13.77;;;8.80;99.90;;;;;;5100201;28;20464;-77
2021/01/29 00:25:53;;;;;;;14.20;13.60;;;8.80;99.90;;;;;;5099722;28;20461;-76
2021/01/29 00:28:22;;;;;;;14.17;13.57;;;8.70;99.90;;;;;;5095943;28;20462;-77
2021/01/29 00:30:50;;;;;;;13.70;13.10;;;8.70;99.90;;;;;;5102042;28;20816;-76
2021/01/29 00:33:18;;;;;;;13.80;13.20;;;8.60;99.90;;;;;;5098089;28;20468;-75
2021/01/29 00:35:44;;;;;;;13.60;13.00;;;8.50;99.90;;;;;;5096608;28;20501;-76
2021/01/29 00:38:13;;;;;;;14.20;13.60;;;8.60;99.90;;;;;;5098564;28;20819;-76
2021/01/29 00:40:39;;;;;;;13.67;13.07;;;8.60;99.90;;;;;;5099214;28;20488;-76
2021/01/29 00:43:06;;;;;;;14.17;13.57;;;8.60;99.90;;;;;;5098400;28;20899;-76
2021/01/29 00:45:35;;;;;;;13.93;13.33;;;8.60;99.90;;;;;;5101433;28;20467;-75
2021/01/29 00:48:03;;;;;;;13.93;13.33;;;8.60;99.90;;;;;;5097487;28;20465;-76
2021/01/29 00:50:30;;;;;;;13.67;13.07;;;8.60;99.90;;;;;;5101618;28;20495;-75
2021/01/29 00:52:58;;;;;;;13.83;13.23;;;8.60;99.90;;;;;;5097310;28;20516;-76
2021/01/29 00:55:25;;;;;;;13.47;12.87;;;8.70;99.90;;;;;;5094817;28;20485;-75
2021/01/29 00:57:51;;;;;;;14.40;13.80;;;8.70;99.90;;;;;;5102393;28;20471;-75
2021/01/29 01:00:20;;;;;;;14.07;13.47;;;8.70;99.90;;;;;;5096567;28;21035;-75
2021/01/29 01:02:47;;;;;;;14.07;13.47;;;8.70;99.90;;;;;;5100962;28;20461;-75
2021/01/29 01:05:16;;;;;;;15.73;15.03;;;8.70;99.90;;;;;;5095257;28;20461;-75
2021/01/29 01:07:44;;;;;;;16.43;15.63;;;8.70;99.90;;;;;;5099916;28;20472;-75
2021/01/29 01:10:12;;;;;;;16.67;15.87;;;8.80;99.90;;;;;;5100049;28;20922;-75
2021/01/29 01:12:41;;;;;;;16.17;15.37;;;8.70;99.90;;;;;;5091395;28;20817;-75
2021/01/29 01:15:10;;;;;;;15.77;15.07;;;8.60;99.90;;;;;;5095501;28;20457;-76
2021/01/29 01:17:37;;;;;;;14.90;14.20;;;8.60;99.90;;;;;;5094769;28;20505;-77
2021/01/29 01:20:05;;;;;;;15.50;14.80;;;8.60;99.90;;;;;;5096207;28;20842;-75
2021/01/29 01:22:31;;;;;;;15.50;14.80;;;8.60;99.90;;;;;;5097879;28;20515;-78
2021/01/29 01:24:58;;;;;;;14.23;13.63;;;8.50;99.90;;;;;;5099651;28;20477;-76
2021/01/29 01:27:24;;;;;;;13.93;13.33;;;8.50;99.90;;;;;;5102400;28;20460;-78
2021/01/29 01:29:54;;;;;;;13.87;13.27;;;8.50;99.90;;;;;;5095938;28;20472;-77
2021/01/29 01:32:21;;;;;;;13.73;13.13;;;8.50;99.90;;;;;;5101681;28;20462;-77
2021/01/29 01:34:47;;;;;;;13.47;12.87;;;8.50;99.90;;;;;;5101433;28;20468;-75
2021/01/29 01:37:13;;;;;;;14.03;13.43;;;8.50;99.90;;;;;;5097844;28;20457;-77
2021/01/29 01:39:39;;;;;;;13.60;13.00;;;8.50;99.90;;;;;;5102141;28;20491;-76
2021/01/29 01:42:06;;;;;;;14.33;13.73;;;8.50;99.90;;;;;;5100040;28;20995;-75
2021/01/29 01:44:34;;;;;;;13.97;13.37;;;8.50;99.90;;;;;;5096422;28;20488;-77
2021/01/29 01:47:07;;;;;;;15.10;14.40;;;8.50;99.90;;;;;;5099192;28;20539;-77
2021/01/29 01:49:38;;;;;;;14.03;13.43;;;8.40;99.90;;;;;;5098420;28;20504;-76
2021/01/29 01:52:11;;;;;;;12.93;12.43;;;8.40;99.90;;;;;;5089790;28;20517;-77
2021/01/29 01:54:44;;;;;;;13.87;13.27;;;8.40;99.90;;;;;;5099118;28;20543;-76
2021/01/29 01:57:13;;;;;;;14.43;13.83;;;8.40;99.90;;;;;;5093913;28;20452;-77
2021/01/29 01:59:44;;;;;;;14.00;13.40;;;8.40;99.90;;;;;;5093689;28;20484;-77
2021/01/29 02:02:14;;;;;;;12.80;12.30;;;8.50;99.90;;;;;;5099928;28;20468;-76
2021/01/29 02:04:44;;;;;;;12.03;11.53;;;8.50;99.90;;;;;;5095134;28;20462;-77
2021/01/29 02:07:21;;;;;;;11.80;11.30;;;8.50;99.90;;;;;;5093201;28;20473;-77
2021/01/29 02:09:49;;;;;;;11.17;10.77;;;8.50;99.90;;;;;;5097954;28;20518;-76
2021/01/29 02:12:16;;;;;;;10.87;10.47;;;8.50;99.90;;;;;;5099770;28;20463;-76
2021/01/29 02:14:43;;;;;;;11.50;11.10;;;8.50;99.90;;;;;;5095996;28;20469;-77
2021/01/29 02:17:33;;;;;;;11.60;11.10;;;8.50;99.90;;;;;;5099005;28;20460;-76
2021/01/29 02:20:49;;;;;;;11.43;11.03;;;8.50;99.90;;;;;;5093462;28;20473;-76
2021/01/29 02:23:47;;;;;;;11.30;10.90;;;8.50;99.90;;;;;;5096407;28;20469;-78
2021/01/29 02:26:58;;;;;;;12.10;11.60;;;8.50;99.90;;;;;;5094217;28;20458;-78
2021/01/29 02:29:41;;;;;;;10.83;10.43;;;8.40;99.90;;;;;;5098327;28;20472;-76
2021/01/29 02:32:54;;;;;;;10.90;10.50;;;8.40;99.90;;;;;;5096035;28;20523;-79
2021/01/29 02:35:49;;;;;;;12.30;11.80;;;8.40;99.90;;;;;;5092640;28;20510;-74
2021/01/29 02:38:33;;;;;;;10.33;9.93;;;8.40;99.90;;;;;;5098271;28;20463;-76
2021/01/29 02:41:09;;;;;;;10.13;9.73;;;8.30;99.90;;;;;;5095153;28;20460;-78
2021/01/29 02:43:50;;;;;;;9.90;9.50;;;8.30;99.90;;;;;;5091596;28;20463;-75
2021/01/29 02:46:27;;;;;;;9.77;9.37;;;8.30;99.90;;;;;;5099928;28;20458;-76
2021/01/29 02:49:04;;;;;;;9.90;9.50;;;8.30;99.90;;;;;;5098010;28;20477;-78
2021/01/29 02:51:38;;;;;;;38.53;13.83;;;8.20;99.90;;;;;;5095705;28;20467;-75
2021/01/29 02:54:13;;;;;;;9.40;9.10;;;8.20;99.90;;;;;;5098526;28;20482;-78
2021/01/29 02:56:49;;;;;;;10.10;9.70;;;8.30;99.90;;;;;;5094124;28;20456;-76
2021/01/29 02:59:21;;;;;;;9.40;9.10;;;8.20;99.90;;;;;;5094192;28;20555;-76
2021/01/29 03:01:56;;;;;;;9.87;9.47;;;8.30;99.90;;;;;;5093947;28;20463;-75
2021/01/29 03:04:32;;;;;;;10.20;9.80;;;8.30;99.90;;;;;;5097477;28;20470;-78
2021/01/29 03:07:02;;;;;;;9.33;9.03;;;8.20;99.90;;;;;;5101485;28;20457;-76
2021/01/29 03:09:36;;;;;;;9.47;9.17;;;8.20;99.90;;;;;;5100276;28;20906;-77
2021/01/29 03:12:07;;;;;;;9.90;9.50;;;8.20;99.90;;;;;;5100926;28;21040;-76
2021/01/29 03:14:39;;;;;;;9.47;9.17;;;8.10;99.90;;;;;;5099384;28;20461;-77
2021/01/29 03:17:12;;;;;;;10.50;10.10;;;8.10;99.90;;;;;;5102014;28;20953;-77
2021/01/29 03:19:44;;;;;;;9.83;9.43;;;8.20;99.90;;;;;;5098021;28;20490;-76
2021/01/29 03:22:15;;;;;;;10.50;10.10;;;8.10;99.90;;;;;;5097231;28;20448;-77
2021/01/29 03:24:46;;;;;;;10.37;9.97;;;8.10;99.90;;;;;;5102945;28;20810;-78
2021/01/29 03:27:17;;;;;;;10.23;9.83;;;8.20;99.90;;;;;;5099763;28;20469;-76
2021/01/29 03:29:46;;;;;;;10.60;10.20;;;8.30;99.90;;;;;;5098938;28;20467;-75
2021/01/29 03:32:15;;;;;;;10.87;10.47;;;8.30;99.90;;;;;;5101220;28;20458;-79
2021/01/29 03:34:47;;;;;;;10.47;10.07;;;8.30;99.90;;;;;;5096717;28;20870;-77
2021/01/29 03:37:20;;;;;;;11.57;11.17;;;8.30;99.90;;;;;;5093146;28;20457;-76
2021/01/29 03:39:48;;;;;;;10.23;9.83;;;8.30;99.90;;;;;;5098623;28;20477;-77
2021/01/29 03:42:26;;;;;;;10.80;10.40;;;8.40;99.90;;;;;;5092476;28;20468;-77
2021/01/29 03:44:57;;;;;;;11.00;10.60;;;8.40;99.90;;;;;;5097578;28;20492;-76
2021/01/29 03:47:33;;;;;;;10.53;10.13;;;8.40;99.90;;;;;;5100037;28;20461;-78
2021/01/29 03:50:11;;;;;;;11.03;10.63;;;8.50;99.90;;;;;;5100804;28;20511;-75
2021/01/29 03:52:45;;;;;;;11.70;11.20;;;8.50;99.90;;;;;;5092282;28;20460;-76
2021/01/29 03:55:20;;;;;;;11.10;10.70;;;8.50;99.90;;;;;;5106557;28;20488;-76
2021/01/29 03:57:58;;;;;;;11.13;10.73;;;8.60;99.90;;;;;;5098406;28;20482;-75
2021/01/29 04:00:36;;;;;;;11.10;10.70;;;8.70;99.90;;;;;;5100449;28;20870;-77
2021/01/29 04:03:10;;;;;;;11.27;10.87;;;8.70;99.90;;;;;;5100613;28;20462;-78
2021/01/29 04:05:45;;;;;;;11.50;11.07;;;8.70;99.90;;;;;;5096343;28;20543;-78
2021/01/29 04:08:16;;;;;;;11.90;11.40;;;8.70;99.90;;;;;;5095235;28;20474;-75
2021/01/29 04:10:49;;;;;;;12.20;11.70;;;8.70;99.90;;;;;;5105981;28;20518;-79
2021/01/29 04:13:19;;;;;;;11.67;11.17;;;8.80;99.90;;;;;;5096485;28;20470;-76
2021/01/29 04:15:50;;;;;;;11.63;11.13;;;8.70;99.90;;;;;;5096255;28;20498;-75
2021/01/29 04:18:22;;;;;;;11.57;11.07;;;8.80;99.90;;;;;;5101529;28;20555;-78
2021/01/29 04:20:53;;;;;;;12.43;11.93;;;8.70;99.90;;;;;;5097914;28;20500;-76
2021/01/29 04:23:25;;;;;;;12.07;11.57;;;8.70;99.90;;;;;;5099953;28;20466;-77
2021/01/29 04:25:59;;;;;;;12.17;11.67;;;8.70;99.90;;;;;;5095815;28;22464;-75
2021/01/29 04:28:28;;;;;;;11.70;11.20;;;8.80;99.90;;;;;;5099121;28;20469;-75
2021/01/29 04:30:56;;;;;;;11.60;11.20;;;8.70;99.90;;;;;;5102977;28;20470;-76
2021/01/29 04:33:26;;;;;;;10.13;9.73;;;8.70;99.90;;;;;;5097316;28;20461;-78
2021/01/29 04:35:56;;;;;;;9.87;9.47;;;8.90;99.90;;;;;;5093052;28;20468;-79
2021/01/29 04:38:28;;;;;;;10.43;10.03;;;9.00;99.90;;;;;;5098149;27;20454;-79
2021/01/29 04:41:05;;;;;;;10.27;9.87;;;9.10;99.90;;;;;;5101246;28;20488;-80
2021/01/29 04:43:51;;;;;;;10.30;9.90;;;9.10;99.90;;;;;;5101060;28;20806;-78
2021/01/29 04:46:41;;;;;;;10.43;10.03;;;9.10;99.90;;;;;;5103155;28;20515;-79
2021/01/29 04:49:20;;;;;;;10.10;9.70;;;9.20;99.90;;;;;;5099149;28;20458;-78
2021/01/29 04:52:05;;;;;;;11.80;11.30;;;9.10;99.90;;;;;;5096804;28;20462;-78
2021/01/29 04:55:00;;;;;;;11.20;10.80;;;9.20;99.90;;;;;;5096587;28;20815;-79
2021/01/29 04:57:46;;;;;;;11.07;10.67;;;9.20;99.90;;;;;;5102135;28;20494;-76
2021/01/29 05:00:38;;;;;;;11.43;11.03;;;9.30;99.90;;;;;;5094655;28;20530;-79
2021/01/29 05:03:40;;;;;;;11.07;10.67;;;9.30;99.90;;;;;;5092040;28;20515;-75
2021/01/29 05:06:50;;;;;;;10.40;10.00;;;9.20;99.90;;;;;;5092842;28;20488;-75
2021/01/29 05:09:52;;;;;;;9.80;9.40;;;9.20;99.90;;;;;;5017459;28;20468;-76
2021/01/29 05:12:42;;;;;;;9.60;9.27;;;9.20;99.90;;;;;;5099758;28;20526;-76
2021/01/29 05:15:45;;;;;;;9.93;9.53;;;9.20;99.90;;;;;;5098610;28;20472;-77
2021/01/29 05:18:37;;;;;;;10.10;9.70;;;9.30;99.90;;;;;;5096667;28;20514;-79
2021/01/29 05:21:34;;;;;;;10.70;10.30;;;9.30;99.90;;;;;;5095409;28;20501;-76
2021/01/29 05:24:31;;;;;;;10.83;10.43;;;9.30;99.90;;;;;;5097515;28;20458;-78
2021/01/29 05:27:15;;;;;;;11.03;10.63;;;9.40;99.90;;;;;;5096318;28;20450;-76
2021/01/29 05:29:56;;;;;;;10.97;10.57;;;9.40;99.90;;;;;;5098030;28;20465;-79
2021/01/29 05:32:35;;;;;;;10.70;10.30;;;9.40;99.90;;;;;;5097077;28;20467;-77
2021/01/29 05:35:37;;;;;;;10.47;10.07;;;9.50;99.90;;;;;;5090339;28;20462;-78
2021/01/29 05:38:30;;;;;;;9.93;9.53;;;9.40;99.90;;;;;;5054237;28;20555;-79
2021/01/29 05:41:30;;;;;;;9.77;9.40;;;9.30;99.90;;;;;;5092866;28;20496;-77
2021/01/29 05:44:17;;;;;;;9.77;9.40;;;9.40;99.90;;;;;;5065053;28;20971;-77
2021/01/29 05:47:03;;;;;;;9.80;9.43;;;9.30;99.90;;;;;;5100310;28;20968;-78
2021/01/29 05:49:33;;;;;;;9.57;9.27;;;9.40;99.90;;;;;;5100376;28;20834;-78
2021/01/29 05:52:35;;;;;;;9.97;9.57;;;9.40;99.90;;;;;;5098862;28;20813;-79
2021/01/29 05:55:15;;;;;;;10.07;9.67;;;9.40;99.90;;;;;;5023099;28;20472;-76
2021/01/29 05:58:15;;;;;;;11.10;10.70;;;9.40;99.90;;;;;;5083666;28;20458;-76
2021/01/29 06:00:59;;;;;;;10.40;10.00;;;9.40;99.90;;;;;;5097800;28;20491;-77
2021/01/29 06:03:45;;;;;;;11.37;10.97;;;9.40;99.90;;;;;;5093145;28;20521;-77
2021/01/29 06:06:30;;;;;;;11.50;11.10;;;9.40;99.90;;;;;;5097248;28;20820;-78
2021/01/29 06:09:32;;;;;;;11.73;11.23;;;9.30;99.90;;;;;;5099747;28;20464;-77
2021/01/29 06:12:24;;;;;;;11.17;10.77;;;9.30;99.90;;;;;;5095521;28;20453;-76
2021/01/29 06:15:44;;;;;;;11.50;11.10;;;9.30;99.90;;;;;;5093699;28;20518;-78
2021/01/29 06:18:56;;;;;;;12.30;11.80;;;9.20;99.90;;;;;;5024725;28;20865;-75
2021/01/29 06:21:58;;;;;;;12.60;12.10;;;9.20;99.90;;;;;;5001759;28;20466;-76
2021/01/29 06:25:00;;;;;;;11.40;11.00;;;9.10;99.90;;;;;;5093783;28;20513;-76
2021/01/29 06:27:49;;;;;;;12.37;11.87;;;9.20;99.90;;;;;;5093261;28;20914;-75
2021/01/29 06:30:29;;;;;;;12.43;11.93;;;9.10;99.90;;;;;;5097257;28;20466;-75
2021/01/29 06:33:38;;;;;;;15.17;14.27;;;9.10;99.90;;;;;;5095436;28;20503;-75
2021/01/29 06:36:16;;;;;;;14.80;14.00;;;9.10;99.90;;;;;;5096844;28;20964;-75
2021/01/29 06:39:05;;;;;;;13.80;13.10;;;9.20;99.90;;;;;;5101650;28;20467;-75
2021/01/29 06:41:51;;;;;;;14.20;13.37;;;9.20;99.90;;;;;;5098172;28;20473;-76
2021/01/29 06:44:34;;;;;;;13.90;13.20;;;9.20;99.90;;;;;;5098234;28;20471;-77
2021/01/29 06:47:13;;;;;;;13.63;12.63;;;9.30;99.90;;;;;;5104848;28;20464;-77
2021/01/29 06:50:03;;;;;;;12.97;12.37;;;9.30;99.90;;;;;;5098083;28;20468;-75
2021/01/29 06:53:02;;;;;;;15.13;14.33;;;9.30;99.90;;;;;;5100345;28;20585;-76
2021/01/29 06:55:51;;;;;;;16.83;15.93;;;9.40;99.90;;;;;;5102151;28;20481;-75
2021/01/29 06:58:45;;;;;;;14.00;13.40;;;9.30;99.90;;;;;;5098649;28;20470;-75
2021/01/29 07:01:43;;;;;;;14.10;13.50;;;9.20;99.90;;;;;;5097709;28;20492;-75
2021/01/29 07:04:56;;;;;;;12.80;12.30;;;9.20;99.90;;;;;;5100188;28;20517;-76
2021/01/29 07:07:36;;;;;;;13.40;12.80;;;9.20;99.90;;;;;;5106595;28;20511;-75
2021/01/29 07:10:39;;;;;;;12.20;11.70;;;9.20;99.90;;;;;;5099220;28;20480;-75
2021/01/29 07:13:14;;;;;;;11.13;10.73;;;9.20;99.90;;;;;;5097392;28;20580;-76
2021/01/29 07:15:55;;;;;;;11.70;11.20;;;9.10;99.90;;;;;;5105470;28;20460;-75
2021/01/29 07:18:33;;;;;;;11.70;11.20;;;9.10;99.90;;;;;;5095807;28;20467;-75
2021/01/29 07:21:16;;;;;;;11.90;11.40;;;9.10;99.90;;;;;;5097506;28;20496;-75
2021/01/29 07:24:04;;;;;;;12.00;11.50;;;9.10;99.90;;;;;;5099459;28;20467;-75
2021/01/29 07:26:40;;;;;;;11.43;11.03;;;9.10;99.90;;;;;;5097347;28;20487;-76
2021/01/29 07:29:26;;;;;;;12.30;11.80;;;9.10;99.90;;;;;;5099233;28;20533;-75
2021/01/29 07:32:03;;;;;;;12.90;12.40;;;9.10;99.90;;;;;;5099178;28;20488;-75
2021/01/29 07:34:38;;;;;;;13.43;12.90;;;9.10;99.90;;;;;;5101437;28;20456;-75
2021/01/29 07:37:26;;;;;;;12.90;12.40;;;9.10;99.90;;;;;;5098652;28;20489;-75
2021/01/29 07:40:17;;;;;;;13.30;12.80;;;9.00;99.90;;;;;;5099965;28;20577;-75
2021/01/29 07:43:17;;;;;;;12.97;12.47;;;9.00;99.90;;;;;;5102044;28;20474;-75
2021/01/29 07:46:08;;;;;;;12.60;12.10;;;8.90;99.90;;;;;;5102311;28;20463;-76
2021/01/29 07:48:58;;;;;;;11.20;10.80;;;8.90;99.90;;;;;;5102337;28;20462;-76
2021/01/29 07:51:34;;;;;;;11.23;10.83;;;8.90;99.90;;;;;;5090747;28;20570;-76
2021/01/29 07:54:19;;;;;;;12.30;11.80;;;8.90;99.90;;;;;;5095069;28;20488;-75
2021/01/29 07:57:00;;;;;;;12.63;12.13;;;9.00;99.90;;;;;;5101825;28;20958;-75
2021/01/29 07:59:44;;;;;;;12.43;11.93;;;9.00;99.90;;;;;;5103348;28;20532;-75
2021/01/29 08:02:17;;;;;;;12.30;11.80;;;9.10;99.90;;;;;;5102731;28;20463;-76
2021/01/29 08:05:12;;;;;;;12.90;12.40;;;9.10;99.90;;;;;;5098241;28;20852;-75
2021/01/29 08:07:42;;;;;;;12.07;11.57;;;9.20;99.90;;;;;;5103719;28;20456;-76
2021/01/29 08:10:27;;;;;;;12.70;12.20;;;9.20;99.90;;;;;;5094466;28;20467;-75
2021/01/29 08:13:02;;;;;;;17.20;15.13;;;9.20;99.90;;;;;;5097044;28;20558;-76
2021/01/29 08:15:34;;;;;;;17.10;15.53;;;9.20;99.90;;;;;;5102849;28;20485;-76
2021/01/29 08:18:40;;;;;;;16.07;14.93;;;9.20;99.90;;;;;;5103405;28;20457;-76
2021/01/29 08:21:46;;;;;;;19.90;15.40;;;9.20;99.90;;;;;;5097179;28;20489;-76
2021/01/29 08:24:25;;;;;;;17.43;14.83;;;9.30;99.90;;;;;;5100640;28;20465;-77
2021/01/29 08:27:11;;;;;;;17.50;14.60;;;9.30;99.90;;;;;;5095989;28;20803;-76
2021/01/29 08:30:01;;;;;;;18.07;14.40;;;9.30;99.90;;;;;;5096572;28;20461;-76
2021/01/29 08:32:48;;;;;;;17.77;15.60;;;9.40;99.90;;;;;;5100749;28;20817;-75
2021/01/29 08:35:45;;;;;;;19.20;14.90;;;9.40;99.90;;;;;;5094675;28;20481;-77
2021/01/29 08:38:17;;;;;;;18.80;17.00;;;9.40;99.90;;;;;;5081161;27;20985;-76
2021/01/29 08:40:57;;;;;;;16.57;15.00;;;9.40;99.90;;;;;;5102424;28;20484;-75
2021/01/29 08:43:50;;;;;;;16.37;14.93;;;9.40;99.90;;;;;;5096941;28;20548;-78
2021/01/29 08:46:32;;;;;;;17.70;15.43;;;9.40;99.90;;;;;;5099266;28;20483;-76
2021/01/29 08:49:14;;;;;;;26.77;16.00;;;9.50;99.90;;;;;;5099198;28;20487;-78
2021/01/29 08:51:46;;;;;;;22.93;16.77;;;9.50;99.90;;;;;;5097393;28;20472;-76
2021/01/29 08:54:26;;;;;;;22.70;16.90;;;9.50;99.90;;;;;;5102762;28;20489;-78
2021/01/29 08:57:01;;;;;;;25.80;17.53;;;9.50;99.90;;;;;;5094203;28;20466;-79
2021/01/29 08:59:31;;;;;;;17.77;15.97;;;9.40;99.90;;;;;;5101625;28;20491;-76
2021/01/29 09:02:05;;;;;;;17.23;15.40;;;9.40;99.90;;;;;;5102137;28;20462;-75
2021/01/29 09:04:50;;;;;;;19.83;15.40;;;9.50;99.90;;;;;;5089790;28;20461;-78
2021/01/29 09:07:20;;;;;;;22.60;16.37;;;9.50;99.90;;;;;;5096633;28;20469;-76
2021/01/29 09:09:47;;;;;;;20.17;15.23;;;9.50;99.90;;;;;;5097883;28;20453;-76
2021/01/29 09:12:18;;;;;;;18.30;16.33;;;9.50;99.90;;;;;;5094521;28;20470;-76
2021/01/29 09:14:53;;;;;;;19.30;15.50;;;9.50;99.90;;;;;;5093987;28;20469;-77
2021/01/29 09:17:24;;;;;;;18.47;14.70;;;9.60;99.90;;;;;;5099318;28;20461;-76
2021/01/29 09:19:58;;;;;;;18.53;14.13;;;9.60;99.90;;;;;;5100068;28;20478;-78
2021/01/29 09:22:30;;;;;;;16.27;14.63;;;9.60;99.90;;;;;;5098722;28;20751;-77
2021/01/29 09:25:02;;;;;;;18.13;14.70;;;9.70;99.90;;;;;;5097434;28;20835;-78
2021/01/29 09:27:48;;;;;;;21.30;14.53;;;9.70;99.90;;;;;;5096145;28;20474;-75
2021/01/29 09:30:21;;;;;;;17.23;15.40;;;9.80;99.90;;;;;;5091561;28;20464;-78
2021/01/29 09:32:57;;;;;;;23.03;14.10;;;9.80;99.90;;;;;;5103217;28;20496;-78
2021/01/29 09:35:50;;;;;;;20.87;15.40;;;9.90;99.90;;;;;;5104324;28;20453;-78
2021/01/29 09:38:21;;;;;;;20.60;17.00;;;9.90;99.90;;;;;;5086633;28;20456;-79
2021/01/29 09:41:00;;;;;;;22.97;14.43;;;9.80;99.90;;;;;;5081997;28;20565;-76
2021/01/29 09:43:36;;;;;;;23.83;14.90;;;9.80;99.90;;;;;;5094184;28;20460;-79
2021/01/29 09:46:03;;;;;;;19.73;14.70;;;9.90;99.90;;;;;;5091335;28;21001;-80
2021/01/29 09:48:30;;;;;;;19.33;14.40;;;9.90;99.90;;;;;;5096988;28;20565;-79
2021/01/29 09:51:05;;;;;;;29.97;14.87;;;10.00;99.90;;;;;;5101579;28;20468;-79
2021/01/29 09:53:40;;;;;;;23.13;14.87;;;10.10;99.90;;;;;;5100476;28;21079;-78
2021/01/29 09:56:16;;;;;;;22.30;15.70;;;10.00;99.90;;;;;;5105047;28;20550;-78
2021/01/29 09:59:13;;;;;;;15.73;14.10;;;10.10;99.90;;;;;;5101494;28;20492;-76
2021/01/29 10:01:43;;;;;;;14.37;13.33;;;10.20;99.90;;;;;;5102052;27;20466;-79
2021/01/29 10:04:17;;;;;;;28.20;15.60;;;10.20;99.90;;;;;;5101729;28;20492;-80
2021/01/29 10:06:53;;;;;;;18.33;14.60;;;10.20;99.90;;;;;;5101724;28;20467;-77
2021/01/29 10:09:24;;;;;;;19.63;14.03;;;10.20;99.90;;;;;;5102218;28;20456;-77
2021/01/29 10:12:00;;;;;;;22.77;15.67;;;10.20;99.90;;;;;;5100565;28;20492;-77
2021/01/29 10:14:33;;;;;;;20.73;14.80;;;10.20;99.90;;;;;;5099616;28;20472;-78
2021/01/29 10:17:05;;;;;;;28.77;16.50;;;10.30;99.90;;;;;;5099139;28;20522;-77
2021/01/29 10:19:39;;;;;;;16.90;15.07;;;10.40;99.90;;;;;;5102239;28;20462;-77
2021/01/29 10:22:34;;;;;;;15.87;14.67;;;10.40;99.90;;;;;;5097108;28;20814;-76
2021/01/29 10:25:11;;;;;;;16.10;14.57;;;10.30;99.90;;;;;;5100074;28;20460;-76
2021/01/29 10:27:45;;;;;;;20.83;15.10;;;10.20;99.90;;;;;;5101649;28;20790;-76
2021/01/29 10:30:20;;;;;;;18.27;16.20;;;10.20;99.90;;;;;;5097953;28;20465;-77
2021/01/29 10:32:57;;;;;;;15.80;14.40;;;10.10;99.90;;;;;;5101100;28;21012;-78
2021/01/29 10:35:29;;;;;;;14.77;13.57;;;10.20;99.90;;;;;;5099896;28;20500;-77
2021/01/29 10:38:02;;;;;;;20.67;14.30;;;10.30;99.90;;;;;;5101663;28;20452;-76
2021/01/29 10:40:35;;;;;;;31.17;15.43;;;10.30;99.90;;;;;;5100904;28;20527;-77
2021/01/29 10:43:13;;;;;;;18.57;14.60;;;10.30;99.90;;;;;;5096201;28;20479;-79
2021/01/29 10:46:00;;;;;;;17.47;15.63;;;10.40;99.90;;;;;;5098191;28;20453;-79
2021/01/29 10:48:41;;;;;;;25.13;15.20;;;10.50;99.90;;;;;;5098543;28;20561;-79
2021/01/29 10:51:21;;;;;;;21.93;15.13;;;10.50;99.90;;;;;;5099344;28;20941;-77
2021/01/29 10:53:55;;;;;;;16.40;14.67;;;10.50;99.90;;;;;;5099349;28;20849;-79
2021/01/29 10:56:26;;;;;;;23.33;15.50;;;10.60;99.90;;;;;;5101836;28;20529;-77
2021/01/29 10:58:57;;;;;;;20.20;14.57;;;10.60;99.90;;;;;;5102472;28;20513;-79
2021/01/29 11:01:33;;;;;;;16.97;14.60;;;10.60;99.90;;;;;;5103531;28;20492;-77
2021/01/29 11:04:06;;;;;;;21.20;14.70;;;10.50;99.90;;;;;;5099505;28;20607;-80
2021/01/29 11:06:46;;;;;;;24.57;15.37;;;10.40;99.90;;;;;;5102535;28;20468;-77
2021/01/29 11:09:25;;;;;;;23.60;16.40;;;10.50;99.90;;;;;;5102787;28;20461;-78
2021/01/29 11:12:02;;;;;;;23.47;15.07;;;10.50;99.90;;;;;;5101511;28;20986;-77
2021/01/29 11:14:33;;;;;;;28.93;15.37;;;10.50;99.90;;;;;;5100866;28;20465;-76
2021/01/29 11:17:08;;;;;;;17.60;14.63;;;10.50;99.90;;;;;;5099094;28;20468;-80
2021/01/29 11:19:39;;;;;;;22.73;14.67;;;10.50;99.90;;;;;;5098181;28;20466;-78
2021/01/29 11:22:20;;;;;;;20.10;16.17;;;10.50;99.90;;;;;;5097399;28;20465;-78
2021/01/29 11:25:13;;;;;;;31.37;15.70;;;10.50;99.90;;;;;;5099139;28;20471;-77
2021/01/29 11:27:47;;;;;;;22.17;14.17;;;10.40;99.90;;;;;;5104784;28;20856;-77
2021/01/29 11:30:20;;;;;;;19.00;14.27;;;10.50;99.90;;;;;;5102470;28;20464;-78
2021/01/29 11:32:54;;;;;;;15.27;13.70;;;10.50;99.90;;;;;;5100906;28;21009;-77
2021/01/29 11:35:37;;;;;;;19.53;14.13;;;10.50;99.90;;;;;;5104290;28;20489;-78
2021/01/29 11:38:16;;;;;;;15.00;13.50;;;10.50;99.90;;;;;;5102607;28;20513;-79
2021/01/29 11:40:55;;;;;;;20.30;15.40;;;10.50;99.90;;;;;;5103403;28;20472;-79
2021/01/29 11:43:33;;;;;;;20.63;15.87;;;10.60;99.90;;;;;;5102206;28;20534;-76
2021/01/29 11:46:09;;;;;;;30.03;16.03;;;10.50;99.90;;;;;;5103377;28;20466;-80
2021/01/29 11:48:43;;;;;;;14.77;13.30;;;10.40;99.90;;;;;;5104265;28;20472;-79
2021/01/29 11:51:17;;;;;;;19.17;14.17;;;10.40;99.90;;;;;;5103564;28;20493;-76
2021/01/29 11:53:51;;;;;;;19.30;13.63;;;10.50;99.90;;;;;;5101882;28;20857;-78
2021/01/29 11:56:23;;;;;;;19.60;15.37;;;10.60;99.90;;;;;;5105371;28;20613;-79
2021/01/29 11:58:55;;;;;;;25.77;14.57;;;11.20;99.90;;;;;;5103177;28;20876;-77
2021/01/29 12:01:29;;;;;;;22.13;14.73;;;11.90;99.90;;;;;;5103816;28;20499;-79
2021/01/29 12:04:05;;;;;;;19.97;15.03;;;11.80;99.90;;;;;;5099086;28;20472;-78
2021/01/29 12:06:35;;;;;;;19.30;14.80;;;12.00;99.90;;;;;;5102778;28;20465;-76
2021/01/29 12:09:06;;;;;;;19.10;14.37;;;11.80;99.90;;;;;;5104050;28;20469;-77
2021/01/29 12:11:41;;;;;;;17.20;14.80;;;11.90;99.90;;;;;;5103041;28;21062;-76
2021/01/29 12:14:19;;;;;;;19.80;15.67;;;11.90;99.90;;;;;;5102893;28;20453;-77
2021/01/29 12:16:53;;;;;;;16.57;15.00;;;11.80;99.90;;;;;;5102579;28;20464;-76
2021/01/29 12:19:28;;;;;;;17.43;13.90;;;11.80;99.90;;;;;;5103996;28;20550;-76
2021/01/29 12:22:13;;;;;;;17.27;15.67;;;11.90;99.90;;;;;;5105111;28;20457;-76
2021/01/29 12:24:58;;;;;;;16.43;14.73;;;11.90;99.90;;;;;;5102738;28;20469;-75
2021/01/29 12:27:34;;;;;;;17.10;15.43;;;12.10;99.90;;;;;;5101341;28;20461;-77
2021/01/29 12:30:07;;;;;;;19.00;14.50;;;11.70;99.90;;;;;;5103537;28;20465;-76
2021/01/29 12:32:52;;;;;;;17.73;14.60;;;11.40;99.90;;;;;;5104111;28;20895;-75
2021/01/29 12:35:27;;;;;;;17.20;15.67;;;11.20;99.90;;;;;;5102922;28;20769;-76
2021/01/29 12:38:16;;;;;;;18.27;16.53;;;10.80;99.90;;;;;;5102562;28;20448;-77
2021/01/29 12:40:45;;;;;;;17.03;15.60;;;10.40;99.90;;;;;;5102498;28;20502;-78
2021/01/29 12:43:28;;;;;;;21.13;17.03;;;10.10;99.90;;;;;;5097989;28;20467;-75
2021/01/29 12:45:58;;;;;;;23.77;18.30;;;10.00;99.90;;;;;;5050546;28;20583;-76
2021/01/29 12:48:41;;;;;;;19.40;17.50;;;10.00;99.90;;;;;;5063438;28;20458;-75
2021/01/29 12:51:12;;;;;;;19.07;17.40;;;9.90;99.90;;;;;;5062852;28;20865;-76
2021/01/29 12:53:57;;;;;;;18.97;17.53;;;9.70;99.90;;;;;;5062243;28;20498;-75
2021/01/29 12:56:53;;;;;;;21.33;19.20;;;9.50;99.90;;;;;;5058415;28;20995;-75
2021/01/29 12:59:48;;;;;;;18.43;16.70;;;9.40;99.90;;;;;;5061570;28;20461;-75
2021/01/29 13:03:11;;;;;;;18.10;16.50;;;9.30;99.90;;;;;;5060888;28;20466;-74
2021/01/29 13:06:06;;;;;;;19.30;17.27;;;9.10;99.90;;;;;;5019463;28;20472;-77
2021/01/29 13:09:07;;;;;;;19.80;16.87;;;9.20;99.90;;;;;;5017996;28;20497;-77
2021/01/29 13:11:50;;;;;;;19.20;16.40;;;9.30;99.90;;;;;;5057131;28;20475;-76
2021/01/29 13:14:25;;;;;;;17.57;15.83;;;9.40;99.90;;;;;;5063004;28;20466;-76
2021/01/29 13:17:22;;;;;;;18.20;16.50;;;9.60;99.90;;;;;;5063215;28;20545;-77
2021/01/29 13:19:58;;;;;;;17.43;15.70;;;9.80;99.90;;;;;;5062049;28;20463;-75
2021/01/29 13:22:36;;;;;;;20.40;15.60;;;10.20;99.90;;;;;;5062916;28;21070;-76
2021/01/29 13:25:21;;;;;;;22.20;15.90;;;10.80;99.90;;;;;;5063803;28;20465;-77
2021/01/29 13:27:54;;;;;;;17.50;15.77;;;11.00;99.90;;;;;;5063504;28;20528;-74
2021/01/29 13:30:27;;;;;;;22.23;17.13;;;11.20;99.90;;;;;;5059530;28;20463;-77
2021/01/29 13:32:56;;;;;;;18.43;16.90;;;10.90;99.90;;;;;;5056545;28;20462;-76
2021/01/29 13:35:27;;;;;;;19.30;17.43;;;10.50;99.90;;;;;;5056942;28;20508;-77